createdAt,value
2017-10-10T00:01:24.445Z,10.30
2017-10-10T00:03:52.019Z,10.30
2017-10-10T00:06:19.624Z,10.30
2017-10-10T00:08:47.214Z,10.30
2017-10-10T00:11:14.788Z,10.30
2017-10-10T00:13:42.359Z,10.30
2017-10-10T00:16:09.951Z,10.20
2017-10-10T00:18:37.544Z,10.30
2017-10-10T00:21:05.207Z,10.30
2017-10-10T00:23:32.772Z,10.30
2017-10-10T00:26:00.379Z,10.30
2017-10-10T00:28:27.939Z,10.40
2017-10-10T00:30:55.506Z,10.60
2017-10-10T00:33:23.095Z,10.90
2017-10-10T00:35:50.668Z,11.00
2017-10-10T00:38:18.297Z,10.70
2017-10-10T00:40:46.629Z,10.80
2017-10-10T00:43:14.219Z,10.80
2017-10-10T00:45:41.934Z,10.80
2017-10-10T00:48:09.502Z,11.00
2017-10-10T00:50:37.087Z,11.10
2017-10-10T00:53:04.667Z,11.30
2017-10-10T00:55:33.028Z,11.30
2017-10-10T00:58:00.609Z,11.30
2017-10-10T01:00:28.988Z,11.30
2017-10-10T01:02:57.373Z,11.30
2017-10-10T01:05:25.723Z,11.30
2017-10-10T01:07:53.320Z,11.20
2017-10-10T01:10:20.879Z,11.20
2017-10-10T01:12:48.460Z,11.10
2017-10-10T01:15:16.037Z,11.10
2017-10-10T01:17:43.611Z,11.10
2017-10-10T01:20:11.187Z,11.00
2017-10-10T01:22:39.667Z,11.00
2017-10-10T01:25:07.283Z,11.00
2017-10-10T01:27:34.871Z,11.00
2017-10-10T01:30:02.468Z,11.00
2017-10-10T01:32:30.037Z,11.00
2017-10-10T01:34:57.598Z,10.90
2017-10-10T01:37:25.208Z,10.70
2017-10-10T01:39:52.767Z,10.80
2017-10-10T01:42:20.391Z,10.50
2017-10-10T01:44:47.955Z,10.40
2017-10-10T01:47:15.536Z,10.50
2017-10-10T01:49:43.155Z,10.50
2017-10-10T01:52:10.747Z,10.50
2017-10-10T01:54:38.336Z,10.60
2017-10-10T01:57:06.729Z,10.70
2017-10-10T01:59:35.083Z,10.70
2017-10-10T02:02:03.563Z,10.70
2017-10-10T02:04:31.896Z,10.60
2017-10-10T02:06:59.488Z,10.50
2017-10-10T02:09:27.075Z,10.60
2017-10-10T02:11:55.400Z,10.60
2017-10-10T02:14:22.979Z,10.50
2017-10-10T02:16:50.551Z,10.50
2017-10-10T02:19:18.879Z,10.50
2017-10-10T02:21:46.482Z,10.50
2017-10-10T02:24:14.051Z,10.50
2017-10-10T02:26:42.432Z,10.60
2017-10-10T02:29:10.759Z,10.60
2017-10-10T02:31:38.370Z,10.60
2017-10-10T02:34:06.704Z,10.60
2017-10-10T02:36:34.271Z,10.60
2017-10-10T02:39:01.866Z,10.70
2017-10-10T02:41:30.346Z,10.70
2017-10-10T02:43:58.863Z,10.70
2017-10-10T02:46:26.423Z,10.70
2017-10-10T02:48:54.003Z,10.70
2017-10-10T02:51:21.568Z,10.70
2017-10-10T02:53:49.188Z,10.60
2017-10-10T02:56:16.783Z,10.60
2017-10-10T02:58:44.383Z,10.60
2017-10-10T03:01:12.898Z,10.60
2017-10-10T03:03:40.460Z,10.60
2017-10-10T03:06:08.059Z,10.60
2017-10-10T03:08:35.656Z,10.60
2017-10-10T03:11:03.219Z,10.60
2017-10-10T03:13:30.863Z,10.60
2017-10-10T03:15:58.528Z,10.60
2017-10-10T03:18:26.097Z,10.50
2017-10-10T03:20:53.687Z,10.50
2017-10-10T03:23:21.392Z,10.50
2017-10-10T03:25:49.783Z,10.50
2017-10-10T03:28:17.400Z,10.50
2017-10-10T03:30:45.893Z,10.50
2017-10-10T03:33:13.523Z,10.40
2017-10-10T03:35:41.309Z,10.50
2017-10-10T03:38:08.871Z,10.50
2017-10-10T03:40:37.289Z,10.50
2017-10-10T03:43:04.944Z,10.50
2017-10-10T03:45:32.509Z,10.50
2017-10-10T03:48:00.088Z,10.60
2017-10-10T03:50:27.753Z,10.60
2017-10-10T03:52:55.363Z,10.60
2017-10-10T03:55:23.719Z,10.60
2017-10-10T03:57:51.314Z,10.60
2017-10-10T04:00:18.898Z,10.50
2017-10-10T04:02:46.467Z,10.50
2017-10-10T04:05:14.102Z,10.50
2017-10-10T04:07:41.655Z,10.50
2017-10-10T04:10:09.320Z,10.50
2017-10-10T04:12:36.911Z,10.50
2017-10-10T04:15:04.516Z,10.50
2017-10-10T04:17:32.848Z,10.50
2017-10-10T04:20:00.411Z,10.50
2017-10-10T04:22:27.995Z,10.60
2017-10-10T04:24:56.367Z,10.60
2017-10-10T04:27:24.031Z,10.70
2017-10-10T04:29:51.607Z,10.70
2017-10-10T04:32:20.001Z,10.70
2017-10-10T04:34:47.596Z,10.70
2017-10-10T04:37:15.176Z,10.70
2017-10-10T04:39:42.768Z,10.70
2017-10-10T04:42:11.103Z,10.60
2017-10-10T04:44:38.705Z,10.60
2017-10-10T04:47:06.283Z,10.60
2017-10-10T04:49:33.879Z,10.50
2017-10-10T04:52:01.628Z,10.50
2017-10-10T04:54:29.195Z,10.50
2017-10-10T04:56:56.780Z,10.50
2017-10-10T04:59:24.345Z,10.50
2017-10-10T05:01:52.707Z,10.50
2017-10-10T05:04:20.286Z,10.50
2017-10-10T05:06:48.639Z,10.50
2017-10-10T05:09:16.211Z,10.50
2017-10-10T05:11:43.927Z,10.50
2017-10-10T05:14:11.478Z,10.50
2017-10-10T05:16:39.186Z,10.60
2017-10-10T05:19:06.784Z,10.60
2017-10-10T05:21:34.360Z,10.60
2017-10-10T05:24:01.955Z,10.70
2017-10-10T05:26:29.520Z,10.60
2017-10-10T05:28:57.107Z,10.70
2017-10-10T05:31:25.619Z,10.70
2017-10-10T05:33:53.272Z,10.60
2017-10-10T05:36:20.871Z,10.70
2017-10-10T05:38:48.432Z,10.70
2017-10-10T05:41:16.045Z,10.70
2017-10-10T05:43:43.619Z,10.80
2017-10-10T05:46:11.312Z,10.80
2017-10-10T05:48:38.877Z,10.90
2017-10-10T05:51:06.468Z,10.90
2017-10-10T05:53:34.035Z,11.00
2017-10-10T05:56:01.636Z,11.00
2017-10-10T05:58:29.240Z,11.00
2017-10-10T06:00:56.807Z,11.00
2017-10-10T06:03:24.395Z,11.10
2017-10-10T06:05:52.118Z,11.10
2017-10-10T06:08:19.771Z,11.10
2017-10-10T06:10:48.096Z,11.10
2017-10-10T06:13:15.667Z,11.10
2017-10-10T06:15:43.253Z,11.20
2017-10-10T06:18:11.603Z,11.30
2017-10-10T06:20:39.382Z,11.30
2017-10-10T06:23:07.031Z,11.30
2017-10-10T06:25:34.598Z,11.40
2017-10-10T06:28:02.964Z,11.40
2017-10-10T06:30:30.548Z,11.40
2017-10-10T06:32:58.360Z,11.30
2017-10-10T06:35:25.914Z,11.40
2017-10-10T06:37:53.500Z,11.30
2017-10-10T06:40:21.060Z,11.30
2017-10-10T06:42:48.661Z,11.30
2017-10-10T06:45:16.994Z,11.40
2017-10-10T06:47:44.621Z,11.40
2017-10-10T06:50:12.281Z,11.30
2017-10-10T06:52:39.870Z,11.30
2017-10-10T06:55:07.541Z,11.40
2017-10-10T06:57:35.108Z,11.40
2017-10-10T07:00:02.779Z,11.40
2017-10-10T07:02:30.339Z,11.40
2017-10-10T07:04:58.704Z,11.40
2017-10-10T07:07:26.279Z,11.40
2017-10-10T07:09:54.612Z,11.50
2017-10-10T07:12:22.253Z,11.50
2017-10-10T07:14:49.828Z,11.50
2017-10-10T07:17:17.416Z,11.60
2017-10-10T07:19:44.985Z,11.70
2017-10-10T07:22:12.569Z,11.70
2017-10-10T07:24:41.226Z,11.70
2017-10-10T07:27:08.787Z,11.70
2017-10-10T07:29:36.391Z,11.70
2017-10-10T07:32:04.076Z,11.70
2017-10-10T07:34:31.664Z,11.60
2017-10-10T07:36:59.324Z,11.70
2017-10-10T07:39:27.687Z,11.80
2017-10-10T07:41:55.251Z,11.70
2017-10-10T07:44:22.929Z,11.80
2017-10-10T07:46:51.255Z,11.90
2017-10-10T07:49:18.869Z,11.90
2017-10-10T07:51:47.214Z,12.00
2017-10-10T07:54:14.824Z,12.00
2017-10-10T07:56:42.402Z,12.10
2017-10-10T07:59:09.990Z,12.10
2017-10-10T08:01:37.589Z,12.20
2017-10-10T08:04:05.944Z,12.20
2017-10-10T08:06:34.296Z,12.30
2017-10-10T08:09:01.859Z,12.30
2017-10-10T08:11:29.422Z,12.40
2017-10-10T08:13:57.011Z,12.40
2017-10-10T08:16:25.372Z,12.20
2017-10-10T08:18:52.933Z,12.20
2017-10-10T08:21:20.486Z,12.10
2017-10-10T08:23:48.077Z,12.30
2017-10-10T08:26:16.407Z,12.60
2017-10-10T08:28:43.989Z,12.50
2017-10-10T08:31:11.555Z,12.50
2017-10-10T08:33:39.918Z,12.80
2017-10-10T08:36:07.563Z,12.80
2017-10-10T08:38:35.148Z,12.60
2017-10-10T08:41:03.484Z,13.00
2017-10-10T08:43:31.091Z,13.00
2017-10-10T08:45:59.474Z,13.40
2017-10-10T08:48:27.799Z,13.30
2017-10-10T08:50:55.368Z,13.30
2017-10-10T08:53:22.969Z,13.40
2017-10-10T08:55:51.349Z,13.30
2017-10-10T08:58:19.748Z,13.10
2017-10-10T09:00:47.408Z,13.10
2017-10-10T09:03:15.029Z,13.00
2017-10-10T09:05:43.408Z,12.90
2017-10-10T09:08:11.111Z,12.90
2017-10-10T09:10:38.671Z,12.80
2017-10-10T09:13:06.269Z,12.80
2017-10-10T09:15:33.826Z,12.80
2017-10-10T09:18:01.420Z,12.80
2017-10-10T09:20:29.922Z,13.10
2017-10-10T09:22:57.579Z,13.10
2017-10-10T09:25:25.159Z,13.10
2017-10-10T09:27:52.735Z,12.80
2017-10-10T09:30:20.363Z,12.30
2017-10-10T09:32:47.968Z,12.30
2017-10-10T09:35:15.575Z,12.30
2017-10-10T09:37:43.149Z,12.50
2017-10-10T09:40:10.759Z,12.50
2017-10-10T09:42:39.230Z,12.60
2017-10-10T09:45:07.555Z,12.70
2017-10-10T09:47:35.175Z,12.70
2017-10-10T09:50:03.646Z,12.80
2017-10-10T09:52:31.251Z,12.80
2017-10-10T09:54:58.791Z,12.80
2017-10-10T09:57:26.343Z,12.90
2017-10-10T09:59:54.696Z,12.90
2017-10-10T10:02:23.013Z,12.90
2017-10-10T10:04:50.627Z,12.90
2017-10-10T10:07:18.201Z,12.90
2017-10-10T10:09:46.596Z,13.20
2017-10-10T10:12:14.929Z,13.30
2017-10-10T10:14:42.522Z,13.30
2017-10-10T10:17:10.859Z,13.90
2017-10-10T10:19:38.423Z,13.90
2017-10-10T10:22:06.012Z,14.80
2017-10-10T10:24:34.355Z,14.70
2017-10-10T10:27:01.932Z,14.70
2017-10-10T10:29:30.262Z,14.20
2017-10-10T10:31:57.845Z,14.20
2017-10-10T10:34:25.412Z,14.20
2017-10-10T10:36:53.019Z,14.10
2017-10-10T10:39:20.666Z,13.90
2017-10-10T10:41:48.991Z,14.00
2017-10-10T10:44:16.585Z,13.90
2017-10-10T10:46:45.656Z,14.00
2017-10-10T10:49:13.239Z,14.00
2017-10-10T10:51:40.804Z,14.00
2017-10-10T10:54:09.300Z,14.10
2017-10-10T10:56:37.696Z,14.20
2017-10-10T10:59:05.288Z,14.10
2017-10-10T11:01:32.893Z,14.20
2017-10-10T11:04:01.263Z,14.40
2017-10-10T11:06:29.632Z,14.60
2017-10-10T11:08:57.969Z,14.60
2017-10-10T11:11:25.565Z,14.60
2017-10-10T11:13:53.900Z,14.70
2017-10-10T11:16:21.476Z,14.70
2017-10-10T11:18:49.075Z,14.90
2017-10-10T11:21:16.672Z,14.80
2017-10-10T11:23:44.248Z,14.70
2017-10-10T11:26:11.835Z,14.70
2017-10-10T11:28:39.411Z,14.70
2017-10-10T11:31:07.884Z,14.50
2017-10-10T11:33:36.220Z,14.50
2017-10-10T11:36:03.799Z,14.50
2017-10-10T11:38:31.483Z,14.50
2017-10-10T11:40:59.844Z,14.40
2017-10-10T11:43:27.566Z,14.30
2017-10-10T11:45:55.133Z,14.40
2017-10-10T11:48:22.731Z,14.20
2017-10-10T11:50:51.088Z,14.30
2017-10-10T11:53:18.667Z,14.20
2017-10-10T11:55:47.024Z,14.20
2017-10-10T11:58:14.620Z,14.10
2017-10-10T12:00:42.179Z,14.20
2017-10-10T12:03:09.765Z,14.20
2017-10-10T12:05:37.335Z,14.20
2017-10-10T12:08:04.900Z,14.10
2017-10-10T12:10:32.528Z,14.10
2017-10-10T12:13:00.104Z,14.20
2017-10-10T12:15:27.689Z,14.30
2017-10-10T12:17:55.271Z,14.20
2017-10-10T12:20:23.755Z,14.00
2017-10-10T12:22:52.145Z,14.00
2017-10-10T12:25:20.543Z,14.00
2017-10-10T12:27:48.188Z,14.00
2017-10-10T12:30:15.792Z,13.90
2017-10-10T12:32:43.360Z,14.00
2017-10-10T12:35:11.074Z,13.80
2017-10-10T12:37:38.633Z,13.80
2017-10-10T12:40:06.253Z,13.80
2017-10-10T12:42:33.983Z,13.90
2017-10-10T12:45:01.587Z,13.90
2017-10-10T12:47:29.919Z,13.70
2017-10-10T12:49:57.488Z,13.70
2017-10-10T12:52:25.103Z,13.80
2017-10-10T12:54:52.711Z,13.70
2017-10-10T12:57:20.312Z,13.90
2017-10-10T12:59:48.639Z,13.90
2017-10-10T13:02:16.203Z,13.90
2017-10-10T13:04:43.807Z,13.90
2017-10-10T13:07:12.138Z,14.00
2017-10-10T13:09:39.737Z,14.00
2017-10-10T13:12:08.076Z,14.00
2017-10-10T13:14:35.676Z,14.00
2017-10-10T13:17:04.176Z,14.00
2017-10-10T13:19:31.775Z,14.00
2017-10-10T13:21:59.344Z,14.10
2017-10-10T13:24:26.947Z,14.10
2017-10-10T13:26:54.539Z,14.00
2017-10-10T13:29:22.128Z,14.00
2017-10-10T13:31:49.729Z,13.90
2017-10-10T13:34:17.308Z,13.80
2017-10-10T13:36:44.916Z,13.80
2017-10-10T13:39:13.348Z,13.70
2017-10-10T13:41:40.951Z,13.70
2017-10-10T13:44:08.567Z,13.80
2017-10-10T13:46:36.148Z,13.70
2017-10-10T13:49:03.730Z,13.80
2017-10-10T13:51:31.328Z,13.90
2017-10-10T13:53:59.041Z,13.90
2017-10-10T13:56:26.632Z,13.90
2017-10-10T13:58:54.208Z,13.90
2017-10-10T14:01:21.812Z,14.00
2017-10-10T14:03:49.411Z,13.90
2017-10-10T14:06:17.004Z,13.90
2017-10-10T14:08:44.576Z,13.90
2017-10-10T14:11:12.161Z,14.10
2017-10-10T14:13:39.737Z,13.80
2017-10-10T14:16:08.092Z,13.80
2017-10-10T14:18:36.465Z,13.80
2017-10-10T14:21:04.027Z,13.80
2017-10-10T14:23:31.624Z,13.70
2017-10-10T14:25:59.200Z,13.50
2017-10-10T14:28:26.767Z,13.40
2017-10-10T14:30:54.408Z,13.50
2017-10-10T14:33:22.006Z,13.50
2017-10-10T14:35:49.599Z,13.60
2017-10-10T14:38:18.064Z,13.50
2017-10-10T14:40:46.427Z,13.40
2017-10-10T14:43:14.769Z,13.50
2017-10-10T14:45:42.375Z,13.50
2017-10-10T14:48:10.715Z,13.70
2017-10-10T14:50:38.302Z,13.70
2017-10-10T14:53:06.663Z,13.70
2017-10-10T14:55:34.249Z,13.70
2017-10-10T14:58:01.843Z,13.70
2017-10-10T15:00:29.512Z,13.60
2017-10-10T15:02:57.144Z,13.70
2017-10-10T15:05:25.525Z,13.80
2017-10-10T15:07:53.926Z,13.90
2017-10-10T15:10:21.590Z,13.80
2017-10-10T15:12:49.170Z,13.90
2017-10-10T15:15:16.759Z,14.10
2017-10-10T15:17:44.341Z,14.00
2017-10-10T15:20:12.668Z,13.90
2017-10-10T15:22:40.264Z,13.90
2017-10-10T15:25:07.861Z,14.10
2017-10-10T15:27:35.452Z,14.00
2017-10-10T15:30:03.024Z,14.10
2017-10-10T15:32:30.647Z,14.20
2017-10-10T15:34:58.207Z,14.30
2017-10-10T15:37:25.776Z,14.40
2017-10-10T15:39:53.384Z,14.40
2017-10-10T15:42:21.716Z,14.50
2017-10-10T15:44:49.347Z,14.50
2017-10-10T15:47:16.919Z,14.50
2017-10-10T15:49:44.504Z,14.50
2017-10-10T15:52:12.072Z,14.40
2017-10-10T15:54:39.660Z,14.40
2017-10-10T15:57:08.040Z,14.30
2017-10-10T15:59:35.691Z,14.30
2017-10-10T16:02:04.032Z,14.30
2017-10-10T16:04:31.713Z,14.30
2017-10-10T16:07:00.088Z,14.30
2017-10-10T16:09:27.818Z,14.30
2017-10-10T16:11:55.397Z,14.40
2017-10-10T16:14:22.988Z,14.30
2017-10-10T16:16:51.336Z,14.40
2017-10-10T16:19:18.896Z,14.40
2017-10-10T16:21:46.928Z,14.40
2017-10-10T16:24:14.520Z,14.20
2017-10-10T16:26:42.215Z,14.20
2017-10-10T16:29:10.666Z,14.20
2017-10-10T16:31:39.785Z,14.20
2017-10-10T16:34:08.157Z,14.30
2017-10-10T16:36:36.480Z,14.20
2017-10-10T16:39:04.067Z,14.10
2017-10-10T16:41:31.705Z,14.10
2017-10-10T16:43:59.267Z,14.00
2017-10-10T16:46:26.864Z,13.80
2017-10-10T16:48:55.209Z,13.60
2017-10-10T16:51:22.801Z,13.60
2017-10-10T16:53:51.137Z,13.30
2017-10-10T16:56:20.259Z,13.30
2017-10-10T16:58:47.881Z,13.40
2017-10-10T17:01:15.452Z,13.30
2017-10-10T17:03:43.044Z,13.60
2017-10-10T17:06:10.655Z,13.60
2017-10-10T17:08:38.255Z,13.60
2017-10-10T17:11:05.831Z,13.50
2017-10-10T17:13:34.335Z,13.50
2017-10-10T17:16:02.068Z,13.50
2017-10-10T17:18:30.407Z,13.60
2017-10-10T17:20:58.019Z,13.60
2017-10-10T17:23:25.587Z,13.50
2017-10-10T17:25:53.200Z,13.30
2017-10-10T17:28:20.783Z,13.10
2017-10-10T17:30:49.143Z,13.30
2017-10-10T17:33:18.263Z,13.50
2017-10-10T17:35:46.606Z,13.40
2017-10-10T17:38:14.245Z,13.40
2017-10-10T17:40:41.889Z,13.40
2017-10-10T17:43:09.547Z,13.40
2017-10-10T17:45:37.225Z,13.20
2017-10-10T17:48:04.923Z,13.10
2017-10-10T17:50:33.457Z,13.20
2017-10-10T17:53:01.678Z,13.20
2017-10-10T17:55:30.312Z,13.30
2017-10-10T17:57:58.381Z,13.30
2017-10-10T18:00:26.558Z,13.40
2017-10-10T18:02:54.721Z,13.40
2017-10-10T18:05:23.509Z,13.50
2017-10-10T18:07:51.580Z,13.40
2017-10-10T18:10:19.650Z,13.40
2017-10-10T18:12:47.617Z,13.50
2017-10-10T18:15:15.593Z,13.40
2017-10-10T18:17:43.554Z,13.50
2017-10-10T18:20:11.633Z,13.50
2017-10-10T18:22:40.512Z,13.50
2017-10-10T18:25:08.482Z,13.50
2017-10-10T18:27:36.551Z,13.50
2017-10-10T18:30:04.621Z,13.50
2017-10-10T18:32:32.588Z,13.50
2017-10-10T18:35:00.662Z,13.50
2017-10-10T18:37:28.728Z,13.50
2017-10-10T18:39:56.699Z,13.50
2017-10-10T18:42:24.766Z,13.50
2017-10-10T18:44:52.734Z,13.50
2017-10-10T18:47:20.803Z,13.50
2017-10-10T18:49:48.875Z,13.40
2017-10-10T18:52:16.945Z,13.40
2017-10-10T18:54:45.833Z,13.30
2017-10-10T18:57:13.885Z,13.30
2017-10-10T18:59:41.973Z,13.30
2017-10-10T19:02:10.044Z,13.30
2017-10-10T19:04:38.116Z,13.40
2017-10-10T19:07:06.195Z,13.40
2017-10-10T19:09:34.165Z,13.40
2017-10-10T19:12:03.146Z,13.40
2017-10-10T19:14:31.318Z,13.40
2017-10-10T19:16:59.497Z,13.40
2017-10-10T19:19:29.094Z,13.50
2017-10-10T19:21:57.061Z,13.50
2017-10-10T19:24:25.235Z,13.40
2017-10-10T19:26:53.179Z,13.50
2017-10-10T19:29:21.376Z,13.50
2017-10-10T19:31:50.060Z,13.50
2017-10-10T19:34:18.133Z,13.50
2017-10-10T19:36:46.211Z,13.50
2017-10-10T19:39:14.989Z,13.50
2017-10-10T19:41:43.060Z,13.50
2017-10-10T19:44:11.232Z,13.50
2017-10-10T19:46:39.306Z,13.50
2017-10-10T19:49:07.385Z,13.50
2017-10-10T19:51:35.540Z,13.60
2017-10-10T19:54:03.715Z,13.50
2017-10-10T19:56:31.787Z,13.60
2017-10-10T19:58:59.751Z,13.60
2017-10-10T20:01:27.618Z,13.60
2017-10-10T20:03:55.688Z,13.60
2017-10-10T20:06:25.293Z,13.60
2017-10-10T20:08:53.466Z,13.60
2017-10-10T20:11:21.333Z,13.60
2017-10-10T20:13:50.839Z,13.60
2017-10-10T20:16:18.904Z,13.60
2017-10-10T20:18:46.876Z,13.60
2017-10-10T20:21:15.558Z,13.60
2017-10-10T20:23:43.440Z,13.60
2017-10-10T20:26:12.106Z,13.60
2017-10-10T20:28:39.896Z,13.60
2017-10-10T20:31:07.734Z,13.60
2017-10-10T20:33:35.383Z,13.60
2017-10-10T20:36:02.966Z,13.60
2017-10-10T20:38:30.585Z,13.60
2017-10-10T20:40:58.956Z,13.60
2017-10-10T20:43:27.341Z,13.70
2017-10-10T20:45:55.683Z,13.70
2017-10-10T20:48:23.251Z,13.60
2017-10-10T20:50:51.601Z,13.70
2017-10-10T20:53:19.167Z,13.70
2017-10-10T20:55:46.768Z,13.70
2017-10-10T20:58:15.191Z,13.80
2017-10-10T21:00:42.797Z,13.80
2017-10-10T21:03:11.194Z,13.80
2017-10-10T21:05:38.765Z,13.80
2017-10-10T21:08:06.363Z,13.80
2017-10-10T21:10:33.943Z,13.80
2017-10-10T21:13:01.508Z,13.80
2017-10-10T21:15:29.883Z,13.70
2017-10-10T21:17:57.439Z,13.70
2017-10-10T21:20:25.048Z,13.80
2017-10-10T21:22:52.647Z,13.80
2017-10-10T21:25:20.288Z,13.70
2017-10-10T21:27:47.863Z,13.80
2017-10-10T21:30:15.480Z,13.90
2017-10-10T21:32:43.035Z,13.90
2017-10-10T21:35:10.599Z,13.90
2017-10-10T21:37:38.211Z,13.90
2017-10-10T21:40:05.780Z,13.80
2017-10-10T21:42:34.137Z,13.60
2017-10-10T21:45:01.745Z,13.60
2017-10-10T21:47:29.392Z,13.70
2017-10-10T21:49:57.107Z,13.50
2017-10-10T21:52:24.696Z,13.50
2017-10-10T21:54:53.204Z,13.40
2017-10-10T21:57:20.804Z,13.40
2017-10-10T21:59:48.384Z,13.30
2017-10-10T22:02:17.469Z,13.50
2017-10-10T22:04:45.084Z,13.50
2017-10-10T22:07:12.639Z,13.50
2017-10-10T22:09:40.249Z,13.60
2017-10-10T22:12:07.915Z,13.50
2017-10-10T22:14:35.499Z,13.40
2017-10-10T22:17:03.899Z,13.90
2017-10-10T22:19:31.468Z,13.80
2017-10-10T22:21:59.087Z,13.80
2017-10-10T22:24:27.428Z,13.80
2017-10-10T22:26:55.035Z,13.80
2017-10-10T22:29:22.599Z,13.80
2017-10-10T22:31:50.205Z,13.90
2017-10-10T22:34:17.766Z,13.80
2017-10-10T22:36:45.337Z,13.80
2017-10-10T22:39:12.928Z,13.70
2017-10-10T22:41:40.500Z,13.70
2017-10-10T22:44:08.100Z,13.60
2017-10-10T22:46:35.704Z,13.60
2017-10-10T22:49:03.296Z,13.60
2017-10-10T22:51:30.916Z,13.60
2017-10-10T22:53:59.267Z,13.70
2017-10-10T22:56:27.591Z,13.60
2017-10-10T22:58:55.226Z,13.60
2017-10-10T23:01:23.587Z,13.60
2017-10-10T23:03:51.147Z,13.60
2017-10-10T23:06:18.725Z,13.60
2017-10-10T23:08:47.061Z,13.80
2017-10-10T23:11:14.655Z,13.70
2017-10-10T23:13:43.005Z,13.90
2017-10-10T23:16:10.580Z,13.80
2017-10-10T23:18:38.500Z,13.90
2017-10-10T23:21:06.127Z,13.90
2017-10-10T23:23:33.689Z,13.90
2017-10-10T23:26:01.271Z,13.90
2017-10-10T23:28:28.876Z,13.90
2017-10-10T23:30:57.243Z,14.10
2017-10-10T23:33:24.804Z,14.10
2017-10-10T23:35:52.383Z,13.90
2017-10-10T23:38:20.715Z,13.80
2017-10-10T23:40:48.311Z,13.80
2017-10-10T23:43:15.875Z,13.90
2017-10-10T23:45:44.327Z,13.80
2017-10-10T23:48:12.668Z,13.80
2017-10-10T23:50:40.430Z,13.80
2017-10-10T23:53:08.007Z,13.70
2017-10-10T23:55:35.576Z,13.70
2017-10-10T23:58:03.166Z,13.70
